sensor_id;sensor_type;location;lat;lon;timestamp;pressure;altitude;pressure_sealevel;temperature;humidity
39613;BME280;25303;48.896;13.342;2022-10-03T00:02:15;93265.22;;;9.24;80.83
39613;BME280;25303;48.896;13.342;2022-10-03T00:05:21;93274.03;;;9.21;80.83
39613;BME280;25303;48.896;13.342;2022-10-03T00:08:19;93283.50;;;9.21;80.92
39613;BME280;25303;48.896;13.342;2022-10-03T00:11:16;93279.28;;;9.20;80.91
39613;BME280;25303;48.896;13.342;2022-10-03T00:14:05;93279.44;;;9.18;80.88
39613;BME280;25303;48.896;13.342;2022-10-03T00:17:00;93280.38;;;9.17;80.99
39613;BME280;25303;48.896;13.342;2022-10-03T00:19:53;93284.72;;;9.17;80.97
39613;BME280;25303;48.896;13.342;2022-10-03T00:22:46;93287.41;;;9.15;81.04
39613;BME280;25303;48.896;13.342;2022-10-03T00:25:41;93284.16;;;9.13;81.06
39613;BME280;25303;48.896;13.342;2022-10-03T00:28:44;93285.13;;;9.12;80.97
39613;BME280;25303;48.896;13.342;2022-10-03T00:31:37;93291.19;;;9.11;80.90
39613;BME280;25303;48.896;13.342;2022-10-03T00:34:32;93297.16;;;9.11;80.87
39613;BME280;25303;48.896;13.342;2022-10-03T00:37:25;93299.06;;;9.09;80.97
39613;BME280;25303;48.896;13.342;2022-10-03T00:47:25;93318.81;;;9.09;81.06
39613;BME280;25303;48.896;13.342;2022-10-03T00:50:40;93317.03;;;9.09;81.05
39613;BME280;25303;48.896;13.342;2022-10-03T00:53:41;93318.66;;;9.10;81.20
39613;BME280;25303;48.896;13.342;2022-10-03T00:56:45;93316.78;;;9.12;81.27
39613;BME280;25303;48.896;13.342;2022-10-03T00:59:43;93316.63;;;9.14;81.25
39613;BME280;25303;48.896;13.342;2022-10-03T01:02:45;93322.59;;;9.15;81.34
39613;BME280;25303;48.896;13.342;2022-10-03T01:05:38;93326.78;;;9.16;81.23
39613;BME280;25303;48.896;13.342;2022-10-03T01:08:37;93320.00;;;9.15;81.21
39613;BME280;25303;48.896;13.342;2022-10-03T01:11:34;93324.22;;;9.16;81.60
39613;BME280;25303;48.896;13.342;2022-10-03T01:14:30;93318.78;;;9.19;81.27
39613;BME280;25303;48.896;13.342;2022-10-03T01:17:24;93311.91;;;9.19;81.36
39613;BME280;25303;48.896;13.342;2022-10-03T01:20:23;93311.22;;;9.17;81.17
39613;BME280;25303;48.896;13.342;2022-10-03T01:23:32;93325.16;;;9.15;81.16
39613;BME280;25303;48.896;13.342;2022-10-03T01:26:27;93328.53;;;9.15;81.22
39613;BME280;25303;48.896;13.342;2022-10-03T01:29:25;93326.91;;;9.14;81.17
39613;BME280;25303;48.896;13.342;2022-10-03T01:32:32;93327.72;;;9.15;81.25
39613;BME280;25303;48.896;13.342;2022-10-03T01:35:29;93334.59;;;9.14;81.25
39613;BME280;25303;48.896;13.342;2022-10-03T01:38:21;93335.44;;;9.15;81.35
39613;BME280;25303;48.896;13.342;2022-10-03T01:41:10;93341.50;;;9.14;81.19
39613;BME280;25303;48.896;13.342;2022-10-03T01:43:58;93343.25;;;9.13;81.17
39613;BME280;25303;48.896;13.342;2022-10-03T01:46:49;93342.31;;;9.14;81.24
39613;BME280;25303;48.896;13.342;2022-10-03T01:49:38;93339.22;;;9.10;81.11
39613;BME280;25303;48.896;13.342;2022-10-03T01:52:31;93337.31;;;9.12;81.17
39613;BME280;25303;48.896;13.342;2022-10-03T01:55:21;93337.31;;;9.12;81.26
39613;BME280;25303;48.896;13.342;2022-10-03T01:58:10;93349.22;;;9.14;81.23
39613;BME280;25303;48.896;13.342;2022-10-03T02:01:00;93339.75;;;9.14;81.18
39613;BME280;25303;48.896;13.342;2022-10-03T02:03:54;93348.38;;;9.13;81.07
39613;BME280;25303;48.896;13.342;2022-10-03T02:06:46;93350.00;;;9.14;81.06
39613;BME280;25303;48.896;13.342;2022-10-03T02:09:37;93346.66;;;9.14;81.23
39613;BME280;25303;48.896;13.342;2022-10-03T02:12:27;93342.44;;;9.12;81.08
39613;BME280;25303;48.896;13.342;2022-10-03T02:15:20;93350.00;;;9.14;81.14
39613;BME280;25303;48.896;13.342;2022-10-03T02:18:13;93345.69;;;9.15;81.09
39613;BME280;25303;48.896;13.342;2022-10-03T02:21:07;93351.78;;;9.14;81.11
39613;BME280;25303;48.896;13.342;2022-10-03T02:24:08;93348.53;;;9.11;81.03
39613;BME280;25303;48.896;13.342;2022-10-03T02:30:45;93358.13;;;9.09;80.85
39613;BME280;25303;48.896;13.342;2022-10-03T02:34:14;93362.59;;;9.07;81.01
39613;BME280;25303;48.896;13.342;2022-10-03T02:37:26;93358.13;;;9.09;81.01
39613;BME280;25303;48.896;13.342;2022-10-03T02:47:03;93361.53;;;9.10;81.15
39613;BME280;25303;48.896;13.342;2022-10-03T02:50:15;93364.09;;;9.10;81.20
39613;BME280;25303;48.896;13.342;2022-10-03T02:53:27;93365.69;;;9.11;81.34
39613;BME280;25303;48.896;13.342;2022-10-03T02:56:44;93368.94;;;9.13;81.44
39613;BME280;25303;48.896;13.342;2022-10-03T02:59:56;93374.91;;;9.14;81.44
39613;BME280;25303;48.896;13.342;2022-10-03T03:03:23;93374.91;;;9.14;81.46
39613;BME280;25303;48.896;13.342;2022-10-03T03:10:20;93385.69;;;9.07;81.34
39613;BME280;25303;48.896;13.342;2022-10-03T03:13:39;93381.66;;;9.05;81.22
39613;BME280;25303;48.896;13.342;2022-10-03T03:16:45;93390.31;;;9.04;81.24
39613;BME280;25303;48.896;13.342;2022-10-03T03:19:57;93385.28;;;9.02;81.15
39613;BME280;25303;48.896;13.342;2022-10-03T03:23:00;93384.34;;;9.03;81.33
39613;BME280;25303;48.896;13.342;2022-10-03T03:26:10;93388.53;;;9.04;81.52
39613;BME280;25303;48.896;13.342;2022-10-03T03:29:05;93380.81;;;9.04;81.26
39613;BME280;25303;48.896;13.342;2022-10-03T03:31:55;93390.16;;;9.05;81.30
39613;BME280;25303;48.896;13.342;2022-10-03T03:34:48;93397.31;;;9.02;81.19
39613;BME280;25303;48.896;13.342;2022-10-03T03:37:42;93392.88;;;9.04;81.23
39613;BME280;25303;48.896;13.342;2022-10-03T03:40:39;93394.75;;;9.02;81.47
39613;BME280;25303;48.896;13.342;2022-10-03T03:43:39;93393.81;;;9.03;81.41
39613;BME280;25303;48.896;13.342;2022-10-03T03:46:39;93399.75;;;9.03;81.47
39613;BME280;25303;48.896;13.342;2022-10-03T03:49:30;93408.41;;;9.02;81.42
39613;BME280;25303;48.896;13.342;2022-10-03T03:52:33;93407.44;;;9.03;81.44
39613;BME280;25303;48.896;13.342;2022-10-03T03:58:36;93413.41;;;9.04;81.31
39613;BME280;25303;48.896;13.342;2022-10-03T04:01:35;93421.25;;;9.02;81.27
39613;BME280;25303;48.896;13.342;2022-10-03T04:04:44;93422.59;;;8.96;81.31
39613;BME280;25303;48.896;13.342;2022-10-03T04:07:51;93420.84;;;8.97;81.39
39613;BME280;25303;48.896;13.342;2022-10-03T04:10:47;93421.78;;;8.96;81.23
39613;BME280;25303;48.896;13.342;2022-10-03T04:14:01;93423.81;;;8.92;81.42
39613;BME280;25303;48.896;13.342;2022-10-03T04:17:05;93422.03;;;8.93;81.41
39613;BME280;25303;48.896;13.342;2022-10-03T04:20:22;93424.75;;;8.91;81.50
39613;BME280;25303;48.896;13.342;2022-10-03T04:23:15;93430.16;;;8.88;81.38
39613;BME280;25303;48.896;13.342;2022-10-03T04:26:19;93423.38;;;8.87;81.50
39613;BME280;25303;48.896;13.342;2022-10-03T04:32:52;93424.19;;;8.88;81.41
39613;BME280;25303;48.896;13.342;2022-10-03T04:35:55;93420.94;;;8.86;81.43
39613;BME280;25303;48.896;13.342;2022-10-03T04:38:55;93426.34;;;8.82;81.42
39613;BME280;25303;48.896;13.342;2022-10-03T04:41:46;93423.91;;;8.81;81.44
39613;BME280;25303;48.896;13.342;2022-10-03T04:44:45;93423.78;;;8.82;81.41
39613;BME280;25303;48.896;13.342;2022-10-03T04:47:41;93432.56;;;8.80;81.42
39613;BME280;25303;48.896;13.342;2022-10-03T04:50:31;93425.00;;;8.78;81.26
39613;BME280;25303;48.896;13.342;2022-10-03T04:53:25;93431.88;;;8.78;81.33
39613;BME280;25303;48.896;13.342;2022-10-03T04:56:29;93430.91;;;8.79;81.39
39613;BME280;25303;48.896;13.342;2022-10-03T04:59:27;93424.84;;;8.80;81.48
39613;BME280;25303;48.896;13.342;2022-10-03T05:02:30;93436.06;;;8.79;81.45
39613;BME280;25303;48.896;13.342;2022-10-03T05:05:40;93430.81;;;8.80;81.50
39613;BME280;25303;48.896;13.342;2022-10-03T05:08:33;93439.31;;;8.81;81.47
39613;BME280;25303;48.896;13.342;2022-10-03T05:11:24;93445.38;;;8.80;81.29
39613;BME280;25303;48.896;13.342;2022-10-03T05:14:20;93445.38;;;8.80;81.36
39613;BME280;25303;48.896;13.342;2022-10-03T05:17:13;93451.19;;;8.82;81.50
39613;BME280;25303;48.896;13.342;2022-10-03T05:20:21;93453.09;;;8.80;81.44
39613;BME280;25303;48.896;13.342;2022-10-03T05:23:18;93454.72;;;8.81;81.39
39613;BME280;25303;48.896;13.342;2022-10-03T05:26:12;93455.66;;;8.80;81.45
39613;BME280;25303;48.896;13.342;2022-10-03T05:29:23;93456.59;;;8.79;81.33
39613;BME280;25303;48.896;13.342;2022-10-03T05:32:16;93469.44;;;8.79;81.40
39613;BME280;25303;48.896;13.342;2022-10-03T05:35:14;93461.63;;;8.80;81.11
39613;BME280;25303;48.896;13.342;2022-10-03T05:38:23;93449.03;;;8.77;81.24
39613;BME280;25303;48.896;13.342;2022-10-03T05:41:16;93463.63;;;8.77;81.38
39613;BME280;25303;48.896;13.342;2022-10-03T05:44:12;93468.63;;;8.78;81.32
39613;BME280;25303;48.896;13.342;2022-10-03T05:47:00;93472.00;;;8.79;81.33
39613;BME280;25303;48.896;13.342;2022-10-03T05:49:57;93472.28;;;8.76;81.26
39613;BME280;25303;48.896;13.342;2022-10-03T05:53:07;93475.50;;;8.78;81.46
39613;BME280;25303;48.896;13.342;2022-10-03T05:56:03;93477.81;;;8.81;81.44
39613;BME280;25303;48.896;13.342;2022-10-03T05:59:09;93479.59;;;8.80;81.52
39613;BME280;25303;48.896;13.342;2022-10-03T06:02:22;93487.53;;;8.77;81.39
39613;BME280;25303;48.896;13.342;2022-10-03T06:05:34;93486.47;;;8.80;81.46
39613;BME280;25303;48.896;13.342;2022-10-03T06:08:43;93486.47;;;8.80;81.38
39613;BME280;25303;48.896;13.342;2022-10-03T06:11:58;93492.44;;;8.80;81.29
39613;BME280;25303;48.896;13.342;2022-10-03T06:15:04;93489.84;;;8.80;81.26
39613;BME280;25303;48.896;13.342;2022-10-03T06:18:00;93499.19;;;8.81;81.21
39613;BME280;25303;48.896;13.342;2022-10-03T06:21:02;93497.41;;;8.82;81.15
39613;BME280;25303;48.896;13.342;2022-10-03T06:24:41;93501.50;;;8.85;81.28
39613;BME280;25303;48.896;13.342;2022-10-03T06:31:29;93509.50;;;8.91;81.45
39613;BME280;25303;48.896;13.342;2022-10-03T06:35:02;93507.72;;;8.92;81.25
39613;BME280;25303;48.896;13.342;2022-10-03T06:41:30;93508.16;;;8.97;81.38
39613;BME280;25303;48.896;13.342;2022-10-03T06:44:31;93512.22;;;9.00;81.25
39613;BME280;25303;48.896;13.342;2022-10-03T06:50:40;93513.28;;;8.97;80.83
39613;BME280;25303;48.896;13.342;2022-10-03T06:53:55;93515.84;;;8.97;80.94
39613;BME280;25303;48.896;13.342;2022-10-03T06:57:09;93521.94;;;8.96;80.66
39613;BME280;25303;48.896;13.342;2022-10-03T07:00:04;93519.22;;;8.97;80.51
39613;BME280;25303;48.896;13.342;2022-10-03T07:03:20;93520.44;;;8.93;80.63
39613;BME280;25303;48.896;13.342;2022-10-03T07:06:32;93527.47;;;8.91;80.66
39613;BME280;25303;48.896;13.342;2022-10-03T07:10:00;93527.19;;;8.85;80.40
39613;BME280;25303;48.896;13.342;2022-10-03T07:16:43;93530.25;;;8.78;80.36
39613;BME280;25303;48.896;13.342;2022-10-03T07:19:55;93528.22;;;8.82;80.46
39613;BME280;25303;48.896;13.342;2022-10-03T07:23:08;93535.53;;;8.87;80.75
39613;BME280;25303;48.896;13.342;2022-10-03T07:26:19;93538.94;;;8.87;80.65
39613;BME280;25303;48.896;13.342;2022-10-03T07:29:40;93542.59;;;8.85;80.70
39613;BME280;25303;48.896;13.342;2022-10-03T07:32:43;93547.19;;;8.91;80.90
39613;BME280;25303;48.896;13.342;2022-10-03T07:35:44;93549.34;;;8.95;81.01
39613;BME280;25303;48.896;13.342;2022-10-03T07:42:29;93552.34;;;9.01;80.60
39613;BME280;25303;48.896;13.342;2022-10-03T07:45:30;93559.81;;;9.04;80.61
39613;BME280;25303;48.896;13.342;2022-10-03T07:48:49;93568.06;;;9.07;80.50
39613;BME280;25303;48.896;13.342;2022-10-03T07:51:40;93557.66;;;9.09;80.61
39613;BME280;25303;48.896;13.342;2022-10-03T07:54:52;93565.78;;;9.14;80.50
39613;BME280;25303;48.896;13.342;2022-10-03T07:58:10;93580.50;;;9.12;80.34
39613;BME280;25303;48.896;13.342;2022-10-03T08:01:07;93578.75;;;9.12;79.94
39613;BME280;25303;48.896;13.342;2022-10-03T08:07:56;93578.06;;;9.10;79.63
39613;BME280;25303;48.896;13.342;2022-10-03T08:11:10;93582.97;;;9.14;79.95
39613;BME280;25303;48.896;13.342;2022-10-03T08:14:11;93586.91;;;9.18;80.22
39613;BME280;25303;48.896;13.342;2022-10-03T08:17:40;93587.44;;;9.21;79.90
39613;BME280;25303;48.896;13.342;2022-10-03T08:20:43;93575.41;;;9.22;79.70
39613;BME280;25303;48.896;13.342;2022-10-03T08:23:46;93582.84;;;9.25;79.76
39613;BME280;25303;48.896;13.342;2022-10-03T08:29:55;93579.22;;;9.37;79.94
39613;BME280;25303;48.896;13.342;2022-10-03T08:33:01;93574.69;;;9.51;79.73
39613;BME280;25303;48.896;13.342;2022-10-03T08:39:33;93566.44;;;9.67;79.26
39613;BME280;25303;48.896;13.342;2022-10-03T08:42:59;93569.03;;;9.77;79.04
39613;BME280;25303;48.896;13.342;2022-10-03T08:46:01;93569.47;;;9.82;78.68
39613;BME280;25303;48.896;13.342;2022-10-03T08:49:10;93572.31;;;9.88;78.79
39613;BME280;25303;48.896;13.342;2022-10-03T08:52:04;93573.09;;;9.99;78.88
39613;BME280;25303;48.896;13.342;2022-10-03T08:55:13;93569.84;;;10.07;77.96
39613;BME280;25303;48.896;13.342;2022-10-03T08:58:18;93552.53;;;10.09;77.29
39613;BME280;25303;48.896;13.342;2022-10-03T09:01:20;93578.00;;;10.12;77.05
39613;BME280;25303;48.896;13.342;2022-10-03T09:04:44;93585.72;;;10.22;77.22
39613;BME280;25303;48.896;13.342;2022-10-03T09:07:57;93588.97;;;10.33;77.14
39613;BME280;25303;48.896;13.342;2022-10-03T09:17:55;93586.09;;;10.37;76.53
39613;BME280;25303;48.896;13.342;2022-10-03T09:21:15;93590.19;;;10.39;76.17
39613;BME280;25303;48.896;13.342;2022-10-03T09:24:33;93594.22;;;10.32;75.08
39613;BME280;25303;48.896;13.342;2022-10-03T09:27:36;93608.88;;;10.31;75.55
39613;BME280;25303;48.896;13.342;2022-10-03T09:30:28;93606.03;;;10.25;75.46
39613;BME280;25303;48.896;13.342;2022-10-03T09:36:35;93610.22;;;10.16;75.47
39613;BME280;25303;48.896;13.342;2022-10-03T09:39:48;93605.19;;;10.14;75.90
39613;BME280;25303;48.896;13.342;2022-10-03T09:43:05;93605.09;;;10.16;76.00
39613;BME280;25303;48.896;13.342;2022-10-03T09:49:46;93608.84;;;10.02;75.23
39613;BME280;25303;48.896;13.342;2022-10-03T09:52:49;93608.69;;;9.94;75.16
39613;BME280;25303;48.896;13.342;2022-10-03T09:55:59;93616.97;;;9.87;74.99
39613;BME280;25303;48.896;13.342;2022-10-03T09:59:07;93613.44;;;9.79;74.77
39613;BME280;25303;48.896;13.342;2022-10-03T10:02:04;93609.91;;;9.80;75.11
39613;BME280;25303;48.896;13.342;2022-10-03T10:05:06;93599.88;;;9.77;74.65
39613;BME280;25303;48.896;13.342;2022-10-03T10:08:12;93605.31;;;9.83;75.03
39613;BME280;25303;48.896;13.342;2022-10-03T10:11:26;93605.72;;;9.88;75.09
39613;BME280;25303;48.896;13.342;2022-10-03T10:14:40;93599.78;;;9.98;75.45
39613;BME280;25303;48.896;13.342;2022-10-03T10:21:25;93599.78;;;10.17;75.31
39613;BME280;25303;48.896;13.342;2022-10-03T10:24:45;93598.69;;;10.30;75.54
39613;BME280;25303;48.896;13.342;2022-10-03T10:41:51;93606.66;;;10.76;74.62
39613;BME280;25303;48.896;13.342;2022-10-03T10:45:13;93602.16;;;10.88;74.58
39613;BME280;25303;48.896;13.342;2022-10-03T10:48:19;93605.66;;;10.97;74.43
39613;BME280;25303;48.896;13.342;2022-10-03T10:55:07;93599.81;;;11.04;73.71
39613;BME280;25303;48.896;13.342;2022-10-03T11:01:45;93597.91;;;11.06;73.49
39613;BME280;25303;48.896;13.342;2022-10-03T11:08:25;93602.41;;;10.94;73.07
39613;BME280;25303;48.896;13.342;2022-10-03T11:24:57;93592.06;;;11.42;71.82
39613;BME280;25303;48.896;13.342;2022-10-03T11:31:39;93597.94;;;11.34;70.89
39613;BME280;25303;48.896;13.342;2022-10-03T11:37:54;93596.34;;;11.51;72.80
39613;BME280;25303;48.896;13.342;2022-10-03T11:40:50;93599.03;;;11.60;71.78
39613;BME280;25303;48.896;13.342;2022-10-03T11:44:01;93596.41;;;11.88;72.08
39613;BME280;25303;48.896;13.342;2022-10-03T11:46:57;93598.06;;;12.25;70.86
39613;BME280;25303;48.896;13.342;2022-10-03T11:50:10;93595.00;;;12.66;71.69
39613;BME280;25303;48.896;13.342;2022-10-03T11:53:09;93579.13;;;13.13;70.64
39613;BME280;25303;48.896;13.342;2022-10-03T11:56:04;93584.94;;;13.42;68.96
39613;BME280;25303;48.896;13.342;2022-10-03T11:59:00;93587.06;;;13.46;68.19
39613;BME280;25303;48.896;13.342;2022-10-03T12:01:59;93594.03;;;13.19;66.61
39613;BME280;25303;48.896;13.342;2022-10-03T12:04:54;93592.34;;;13.10;67.05
39613;BME280;25303;48.896;13.342;2022-10-03T12:07:43;93610.34;;;12.94;66.49
39613;BME280;25303;48.896;13.342;2022-10-03T12:10:53;93600.56;;;12.79;66.36
39613;BME280;25303;48.896;13.342;2022-10-03T12:13:49;93588.22;;;12.65;66.84
39613;BME280;25303;48.896;13.342;2022-10-03T12:16:46;93590.38;;;12.51;67.15
39613;BME280;25303;48.896;13.342;2022-10-03T12:19:40;93585.59;;;12.38;67.16
39613;BME280;25303;48.896;13.342;2022-10-03T12:22:34;93585.22;;;12.33;67.83
39613;BME280;25303;48.896;13.342;2022-10-03T12:25:22;93585.00;;;12.44;68.38
39613;BME280;25303;48.896;13.342;2022-10-03T12:28:14;93583.50;;;12.42;66.70
39613;BME280;25303;48.896;13.342;2022-10-03T12:31:05;93591.13;;;12.43;67.19
39613;BME280;25303;48.896;13.342;2022-10-03T12:34:00;93592.69;;;12.36;67.24
39613;BME280;25303;48.896;13.342;2022-10-03T12:36:51;93589.38;;;12.26;66.92
39613;BME280;25303;48.896;13.342;2022-10-03T12:39:45;93588.13;;;12.12;66.76
39613;BME280;25303;48.896;13.342;2022-10-03T12:42:35;93589.81;;;12.03;65.29
39613;BME280;25303;48.896;13.342;2022-10-03T12:45:29;93588.34;;;12.00;66.76
39613;BME280;25303;48.896;13.342;2022-10-03T12:48:36;93586.97;;;11.96;66.77
39613;BME280;25303;48.896;13.342;2022-10-03T12:51:34;93586.91;;;11.88;66.62
39613;BME280;25303;48.896;13.342;2022-10-03T12:54:34;93587.78;;;11.79;66.51
39613;BME280;25303;48.896;13.342;2022-10-03T12:57:53;93601.13;;;11.74;66.64
39613;BME280;25303;48.896;13.342;2022-10-03T13:00:46;93586.75;;;11.72;67.31
39613;BME280;25303;48.896;13.342;2022-10-03T13:03:40;93598.03;;;11.70;67.32
39613;BME280;25303;48.896;13.342;2022-10-03T13:06:42;93593.16;;;11.67;66.98
39613;BME280;25303;48.896;13.342;2022-10-03T13:09:58;93600.72;;;11.69;66.97
39613;BME280;25303;48.896;13.342;2022-10-03T13:12:46;93598.47;;;11.66;67.12
39613;BME280;25303;48.896;13.342;2022-10-03T13:15:53;93587.38;;;11.55;66.22
39613;BME280;25303;48.896;13.342;2022-10-03T13:18:47;93589.00;;;11.57;66.23
39613;BME280;25303;48.896;13.342;2022-10-03T13:21:55;93596.59;;;11.58;66.34
39613;BME280;25303;48.896;13.342;2022-10-03T13:24:49;93594.97;;;11.57;66.51
39613;BME280;25303;48.896;13.342;2022-10-03T13:27:41;93590.78;;;11.56;66.66
39613;BME280;25303;48.896;13.342;2022-10-03T13:30:29;93588.31;;;11.54;66.63
39613;BME280;25303;48.896;13.342;2022-10-03T13:33:16;93589.81;;;11.57;66.73
39613;BME280;25303;48.896;13.342;2022-10-03T13:36:06;93585.97;;;11.61;66.97
39613;BME280;25303;48.896;13.342;2022-10-03T13:39:01;93589.44;;;11.70;66.74
39613;BME280;25303;48.896;13.342;2022-10-03T13:41:58;93601.13;;;11.74;66.37
39613;BME280;25303;48.896;13.342;2022-10-03T13:44:48;93595.00;;;11.75;66.62
39613;BME280;25303;48.896;13.342;2022-10-03T13:47:43;93589.91;;;11.65;66.11
39613;BME280;25303;48.896;13.342;2022-10-03T13:50:33;93588.66;;;11.69;66.51
39613;BME280;25303;48.896;13.342;2022-10-03T13:53:38;93591.06;;;11.71;66.52
39613;BME280;25303;48.896;13.342;2022-10-03T13:56:36;93583.06;;;11.74;66.65
39613;BME280;25303;48.896;13.342;2022-10-03T13:59:33;93573.69;;;11.73;66.29
39613;BME280;25303;48.896;13.342;2022-10-03T14:02:37;93585.78;;;11.73;65.66
39613;BME280;25303;48.896;13.342;2022-10-03T14:05:38;93578.84;;;11.73;65.88
39613;BME280;25303;48.896;13.342;2022-10-03T14:08:44;93574.22;;;11.77;66.24
39613;BME280;25303;48.896;13.342;2022-10-03T14:11:38;93580.19;;;11.77;65.99
39613;BME280;25303;48.896;13.342;2022-10-03T14:14:49;93581.72;;;11.70;65.13
39613;BME280;25303;48.896;13.342;2022-10-03T14:17:40;93585.13;;;11.70;65.30
39613;BME280;25303;48.896;13.342;2022-10-03T14:20:30;93592.31;;;11.67;65.58
39613;BME280;25303;48.896;13.342;2022-10-03T14:23:22;93590.34;;;11.61;65.64
39613;BME280;25303;48.896;13.342;2022-10-03T14:26:13;93592.25;;;11.59;65.80
39613;BME280;25303;48.896;13.342;2022-10-03T14:29:02;93586.41;;;11.57;65.95
39613;BME280;25303;48.896;13.342;2022-10-03T14:31:52;93591.19;;;11.51;65.85
39613;BME280;25303;48.896;13.342;2022-10-03T14:34:45;93584.16;;;11.44;66.05
39613;BME280;25303;48.896;13.342;2022-10-03T14:37:37;93579.44;;;11.39;66.22
39613;BME280;25303;48.896;13.342;2022-10-03T14:40:28;93575.53;;;11.35;66.47
39613;BME280;25303;48.896;13.342;2022-10-03T14:43:29;93582.31;;;11.36;66.36
39613;BME280;25303;48.896;13.342;2022-10-03T14:46:17;93572.66;;;11.38;66.83
39613;BME280;25303;48.896;13.342;2022-10-03T14:49:03;93580.06;;;11.51;66.71
39613;BME280;25303;48.896;13.342;2022-10-03T14:52:18;93579.00;;;11.72;67.08
39613;BME280;25303;48.896;13.342;2022-10-03T14:55:07;93575.28;;;12.02;66.85
39613;BME280;25303;48.896;13.342;2022-10-03T14:57:59;93577.88;;;12.20;65.88
39613;BME280;25303;48.896;13.342;2022-10-03T15:01:01;93574.03;;;12.24;65.47
39613;BME280;25303;48.896;13.342;2022-10-03T15:03:56;93577.06;;;12.20;65.53
39613;BME280;25303;48.896;13.342;2022-10-03T15:06:51;93574.13;;;12.14;65.48
39613;BME280;25303;48.896;13.342;2022-10-03T15:09:41;93571.16;;;12.09;65.54
39613;BME280;25303;48.896;13.342;2022-10-03T15:12:26;93581.13;;;12.04;66.09
39613;BME280;25303;48.896;13.342;2022-10-03T15:15:16;93571.06;;;12.01;66.24
39613;BME280;25303;48.896;13.342;2022-10-03T15:18:01;93575.94;;;12.04;66.31
39613;BME280;25303;48.896;13.342;2022-10-03T15:20:46;93574.75;;;12.16;66.08
39613;BME280;25303;48.896;13.342;2022-10-03T15:23:36;93569.59;;;12.16;66.24
39613;BME280;25303;48.896;13.342;2022-10-03T15:26:53;93570.34;;;12.09;64.96
39613;BME280;25303;48.896;13.342;2022-10-03T15:29:38;93578.53;;;12.04;65.15
39613;BME280;25303;48.896;13.342;2022-10-03T15:32:26;93580.47;;;11.92;64.91
39613;BME280;25303;48.896;13.342;2022-10-03T15:35:16;93587.19;;;11.85;64.97
39613;BME280;25303;48.896;13.342;2022-10-03T15:38:09;93582.09;;;11.75;65.13
39613;BME280;25303;48.896;13.342;2022-10-03T15:41:06;93579.56;;;11.65;64.45
39613;BME280;25303;48.896;13.342;2022-10-03T15:43:55;93589.50;;;11.60;64.84
39613;BME280;25303;48.896;13.342;2022-10-03T15:46:43;93585.06;;;11.52;65.43
39613;BME280;25303;48.896;13.342;2022-10-03T15:49:32;93593.63;;;11.53;66.01
39613;BME280;25303;48.896;13.342;2022-10-03T15:52:20;93590.53;;;11.49;65.85
39613;BME280;25303;48.896;13.342;2022-10-03T15:55:07;93590.00;;;11.46;66.20
39613;BME280;25303;48.896;13.342;2022-10-03T15:57:59;93584.16;;;11.44;66.59
39613;BME280;25303;48.896;13.342;2022-10-03T16:00:51;93598.84;;;11.43;66.58
39613;BME280;25303;48.896;13.342;2022-10-03T16:03:41;93593.28;;;11.38;66.23
39613;BME280;25303;48.896;13.342;2022-10-03T16:06:29;93591.00;;;11.35;66.80
39613;BME280;25303;48.896;13.342;2022-10-03T16:09:22;93592.94;;;11.33;66.60
39613;BME280;25303;48.896;13.342;2022-10-03T16:12:27;93588.06;;;11.30;66.79
39613;BME280;25303;48.896;13.342;2022-10-03T16:15:19;93583.97;;;11.27;67.13
39613;BME280;25303;48.896;13.342;2022-10-03T16:18:05;93586.72;;;11.25;67.26
39613;BME280;25303;48.896;13.342;2022-10-03T16:20:54;93585.25;;;11.23;67.40
39613;BME280;25303;48.896;13.342;2022-10-03T16:23:41;93588.88;;;11.20;67.52
39613;BME280;25303;48.896;13.342;2022-10-03T16:26:28;93580.47;;;11.18;67.40
39613;BME280;25303;48.896;13.342;2022-10-03T16:29:17;93597.06;;;11.16;67.66
39613;BME280;25303;48.896;13.342;2022-10-03T16:32:04;93593.28;;;11.10;67.84
39613;BME280;25303;48.896;13.342;2022-10-03T16:34:48;93604.81;;;11.06;67.73
39613;BME280;25303;48.896;13.342;2022-10-03T16:37:35;93597.50;;;11.01;67.70
39613;BME280;25303;48.896;13.342;2022-10-03T16:40:22;93605.50;;;10.98;67.91
39613;BME280;25303;48.896;13.342;2022-10-03T16:43:14;93605.78;;;10.95;67.92
39613;BME280;25303;48.896;13.342;2022-10-03T16:45:59;93604.47;;;10.91;68.06
39613;BME280;25303;48.896;13.342;2022-10-03T16:48:43;93598.75;;;10.87;68.26
39613;BME280;25303;48.896;13.342;2022-10-03T16:51:45;93599.03;;;10.84;68.40
39613;BME280;25303;48.896;13.342;2022-10-03T16:54:34;93601.91;;;10.81;68.40
39613;BME280;25303;48.896;13.342;2022-10-03T16:57:20;93602.88;;;10.80;68.61
39613;BME280;25303;48.896;13.342;2022-10-03T17:00:13;93596.38;;;10.76;68.68
39613;BME280;25303;48.896;13.342;2022-10-03T17:02:57;93595.56;;;10.75;68.79
39613;BME280;25303;48.896;13.342;2022-10-03T17:05:43;93595.00;;;10.72;68.78
39613;BME280;25303;48.896;13.342;2022-10-03T17:08:31;93602.06;;;10.70;69.18
39613;BME280;25303;48.896;13.342;2022-10-03T17:11:23;93602.34;;;10.67;69.08
39613;BME280;25303;48.896;13.342;2022-10-03T17:14:10;93596.28;;;10.58;69.00
39613;BME280;25303;48.896;13.342;2022-10-03T17:17:01;93592.19;;;10.55;68.95
39613;BME280;25303;48.896;13.342;2022-10-03T17:19:55;93594.38;;;10.50;69.00
39613;BME280;25303;48.896;13.342;2022-10-03T17:22:42;93599.94;;;10.45;69.04
39613;BME280;25303;48.896;13.342;2022-10-03T17:25:34;93602.25;;;10.39;68.90
39613;BME280;25303;48.896;13.342;2022-10-03T17:28:28;93600.06;;;10.34;69.12
39613;BME280;25303;48.896;13.342;2022-10-03T17:31:24;93596.25;;;10.28;69.31
39613;BME280;25303;48.896;13.342;2022-10-03T17:34:13;93605.19;;;10.24;69.37
39613;BME280;25303;48.896;13.342;2022-10-03T17:37:14;93602.22;;;10.19;69.64
39613;BME280;25303;48.896;13.342;2022-10-03T17:40:13;93599.25;;;10.14;69.49
39613;BME280;25303;48.896;13.342;2022-10-03T17:43:01;93599.09;;;10.06;69.65